sensor_id;sensor_type;location;lat;lon;timestamp;temperature;humidity
27409;DHT22;20413;50.782;7.152;2023-02-28T17:49:22;4.70;95.20
27409;DHT22;20413;50.782;7.152;2023-02-28T17:51:48;4.60;95.80
27409;DHT22;20413;50.782;7.152;2023-02-28T17:54:14;4.60;97.00
27409;DHT22;20413;50.782;7.152;2023-02-28T17:56:43;4.40;98.20
27409;DHT22;20413;50.782;7.152;2023-02-28T17:59:10;4.50;96.70
27409;DHT22;20413;50.782;7.152;2023-02-28T18:01:36;4.30;97.80
27409;DHT22;20413;50.782;7.152;2023-02-28T18:04:02;4.20;98.60
27409;DHT22;20413;50.782;7.152;2023-02-28T18:06:41;4.10;99.90
27409;DHT22;20413;50.782;7.152;2023-02-28T18:09:22;4.10;98.70
27409;DHT22;20413;50.782;7.152;2023-02-28T18:11:52;4.10;98.60
27409;DHT22;20413;50.782;7.152;2023-02-28T18:14:20;4.10;98.50
27409;DHT22;20413;50.782;7.152;2023-02-28T18:16:46;4.10;99.40
27409;DHT22;20413;50.782;7.152;2023-02-28T18:19:12;4.00;99.90
27409;DHT22;20413;50.782;7.152;2023-02-28T18:21:46;3.90;99.90
27409;DHT22;20413;50.782;7.152;2023-02-28T18:24:13;3.90;99.90
27409;DHT22;20413;50.782;7.152;2023-02-28T18:26:40;3.80;99.90
27409;DHT22;20413;50.782;7.152;2023-02-28T18:29:07;3.70;99.90
27409;DHT22;20413;50.782;7.152;2023-02-28T18:31:33;3.60;99.90
27409;DHT22;20413;50.782;7.152;2023-02-28T18:33:59;3.50;99.90
27409;DHT22;20413;50.782;7.152;2023-02-28T18:36:25;3.40;99.90
27409;DHT22;20413;50.782;7.152;2023-02-28T18:38:51;3.20;99.90
27409;DHT22;20413;50.782;7.152;2023-02-28T18:41:19;3.10;99.90
27409;DHT22;20413;50.782;7.152;2023-02-28T18:43:48;3.00;99.90
27409;DHT22;20413;50.782;7.152;2023-02-28T18:46:16;2.90;99.90
27409;DHT22;20413;50.782;7.152;2023-02-28T18:48:42;2.80;99.90
27409;DHT22;20413;50.782;7.152;2023-02-28T18:53:37;2.80;99.90
27409;DHT22;20413;50.782;7.152;2023-02-28T18:56:03;2.70;99.90
27409;DHT22;20413;50.782;7.152;2023-02-28T18:58:29;2.70;99.90
27409;DHT22;20413;50.782;7.152;2023-02-28T19:00:55;2.70;99.90
27409;DHT22;20413;50.782;7.152;2023-02-28T19:03:21;2.60;99.90
27409;DHT22;20413;50.782;7.152;2023-02-28T19:05:46;2.60;99.90
27409;DHT22;20413;50.782;7.152;2023-02-28T19:08:12;2.60;99.90
27409;DHT22;20413;50.782;7.152;2023-02-28T19:10:38;2.60;99.90
27409;DHT22;20413;50.782;7.152;2023-02-28T19:13:07;2.50;99.90
27409;DHT22;20413;50.782;7.152;2023-02-28T19:15:33;2.40;99.90
27409;DHT22;20413;50.782;7.152;2023-02-28T19:17:58;2.30;99.90
27409;DHT22;20413;50.782;7.152;2023-02-28T19:20:24;2.20;99.90
27409;DHT22;20413;50.782;7.152;2023-02-28T19:22:50;2.20;99.90
27409;DHT22;20413;50.782;7.152;2023-02-28T19:25:15;2.10;99.90
27409;DHT22;20413;50.782;7.152;2023-02-28T19:27:41;2.00;99.90
27409;DHT22;20413;50.782;7.152;2023-02-28T19:30:09;2.00;99.90
27409;DHT22;20413;50.782;7.152;2023-02-28T19:32:35;2.00;99.90
27409;DHT22;20413;50.782;7.152;2023-02-28T19:35:01;2.00;99.90
27409;DHT22;20413;50.782;7.152;2023-02-28T19:37:27;2.00;99.90
27409;DHT22;20413;50.782;7.152;2023-02-28T19:39:53;2.00;99.90
27409;DHT22;20413;50.782;7.152;2023-02-28T19:42:21;1.90;99.90
27409;DHT22;20413;50.782;7.152;2023-02-28T19:44:47;1.90;99.90
27409;DHT22;20413;50.782;7.152;2023-02-28T19:47:13;1.80;99.90
27409;DHT22;20413;50.782;7.152;2023-02-28T19:49:38;1.70;99.90
27409;DHT22;20413;50.782;7.152;2023-02-28T19:52:04;1.70;99.90
27409;DHT22;20413;50.782;7.152;2023-02-28T19:54:30;1.70;99.90
27409;DHT22;20413;50.782;7.152;2023-02-28T19:56:55;1.60;99.90
27409;DHT22;20413;50.782;7.152;2023-02-28T19:59:26;1.50;99.90
27409;DHT22;20413;50.782;7.152;2023-02-28T20:01:52;1.50;99.90
27409;DHT22;20413;50.782;7.152;2023-02-28T20:04:23;1.40;99.90
27409;DHT22;20413;50.782;7.152;2023-02-28T20:06:48;1.40;99.90
27409;DHT22;20413;50.782;7.152;2023-02-28T20:09:14;1.40;99.90
27409;DHT22;20413;50.782;7.152;2023-02-28T20:11:41;1.30;99.90
27409;DHT22;20413;50.782;7.152;2023-02-28T20:14:06;1.30;99.90
27409;DHT22;20413;50.782;7.152;2023-02-28T20:16:32;1.20;99.90
27409;DHT22;20413;50.782;7.152;2023-02-28T20:18:58;1.20;99.90
27409;DHT22;20413;50.782;7.152;2023-02-28T20:21:24;1.20;99.90
27409;DHT22;20413;50.782;7.152;2023-02-28T20:23:49;1.10;99.90
27409;DHT22;20413;50.782;7.152;2023-02-28T20:26:15;1.10;99.90
27409;DHT22;20413;50.782;7.152;2023-02-28T20:28:43;1.00;99.90
27409;DHT22;20413;50.782;7.152;2023-02-28T20:31:14;1.00;99.90
27409;DHT22;20413;50.782;7.152;2023-02-28T20:33:41;1.00;99.90
27409;DHT22;20413;50.782;7.152;2023-02-28T20:36:07;0.90;99.90
27409;DHT22;20413;50.782;7.152;2023-02-28T20:38:35;0.90;99.90
27409;DHT22;20413;50.782;7.152;2023-02-28T20:41:01;0.90;99.90
27409;DHT22;20413;50.782;7.152;2023-02-28T20:43:27;0.90;99.90
27409;DHT22;20413;50.782;7.152;2023-02-28T20:45:56;0.90;99.90
27409;DHT22;20413;50.782;7.152;2023-02-28T20:48:23;0.80;99.90
27409;DHT22;20413;50.782;7.152;2023-02-28T20:50:50;0.80;99.90
27409;DHT22;20413;50.782;7.152;2023-02-28T20:53:16;0.80;99.90
27409;DHT22;20413;50.782;7.152;2023-02-28T20:55:41;0.90;99.90
27409;DHT22;20413;50.782;7.152;2023-02-28T20:58:17;0.90;99.90
27409;DHT22;20413;50.782;7.152;2023-02-28T21:00:42;0.90;99.90
27409;DHT22;20413;50.782;7.152;2023-02-28T21:03:08;0.90;99.90
27409;DHT22;20413;50.782;7.152;2023-02-28T21:05:33;0.90;99.90
27409;DHT22;20413;50.782;7.152;2023-02-28T21:07:59;0.80;99.90
27409;DHT22;20413;50.782;7.152;2023-02-28T21:10:25;0.80;99.90
27409;DHT22;20413;50.782;7.152;2023-02-28T21:12:50;0.80;99.90
27409;DHT22;20413;50.782;7.152;2023-02-28T21:15:22;0.70;99.90
27409;DHT22;20413;50.782;7.152;2023-02-28T21:17:48;0.70;99.90
27409;DHT22;20413;50.782;7.152;2023-02-28T21:20:13;0.70;99.90
27409;DHT22;20413;50.782;7.152;2023-02-28T21:22:49;0.70;99.90
27409;DHT22;20413;50.782;7.152;2023-02-28T21:25:15;0.70;99.90
27409;DHT22;20413;50.782;7.152;2023-02-28T21:27:41;0.70;99.90
27409;DHT22;20413;50.782;7.152;2023-02-28T21:30:09;0.60;99.90
27409;DHT22;20413;50.782;7.152;2023-02-28T21:32:34;0.60;99.90
27409;DHT22;20413;50.782;7.152;2023-02-28T21:35:00;0.50;99.90
27409;DHT22;20413;50.782;7.152;2023-02-28T21:37:25;0.50;99.90
27409;DHT22;20413;50.782;7.152;2023-02-28T21:39:51;0.40;99.90
27409;DHT22;20413;50.782;7.152;2023-02-28T21:42:17;0.40;99.90
27409;DHT22;20413;50.782;7.152;2023-02-28T21:44:42;0.40;99.90
27409;DHT22;20413;50.782;7.152;2023-02-28T21:47:08;0.40;99.90
27409;DHT22;20413;50.782;7.152;2023-02-28T21:49:34;0.40;99.90
27409;DHT22;20413;50.782;7.152;2023-02-28T21:52:00;0.40;99.90
27409;DHT22;20413;50.782;7.152;2023-02-28T21:54:25;0.40;99.90
27409;DHT22;20413;50.782;7.152;2023-02-28T21:56:51;0.40;99.90
27409;DHT22;20413;50.782;7.152;2023-02-28T21:59:17;0.40;99.90
27409;DHT22;20413;50.782;7.152;2023-02-28T22:01:44;0.30;99.90
27409;DHT22;20413;50.782;7.152;2023-02-28T22:04:12;0.30;99.90
27409;DHT22;20413;50.782;7.152;2023-02-28T22:06:53;0.30;99.90
27409;DHT22;20413;50.782;7.152;2023-02-28T22:09:19;0.30;99.90
27409;DHT22;20413;50.782;7.152;2023-02-28T22:11:45;0.20;99.90
27409;DHT22;20413;50.782;7.152;2023-02-28T22:14:11;0.20;99.90
27409;DHT22;20413;50.782;7.152;2023-02-28T22:16:37;0.20;99.90
27409;DHT22;20413;50.782;7.152;2023-02-28T22:19:04;0.10;99.90
27409;DHT22;20413;50.782;7.152;2023-02-28T22:21:34;0.10;99.90
27409;DHT22;20413;50.782;7.152;2023-02-28T22:24:00;0.10;99.90
27409;DHT22;20413;50.782;7.152;2023-02-28T22:26:25;0.10;99.90
27409;DHT22;20413;50.782;7.152;2023-02-28T22:28:51;0.10;99.90
27409;DHT22;20413;50.782;7.152;2023-02-28T22:31:20;0.10;99.90
27409;DHT22;20413;50.782;7.152;2023-02-28T22:33:46;0.10;99.90
27409;DHT22;20413;50.782;7.152;2023-02-28T22:36:14;0.10;99.90
27409;DHT22;20413;50.782;7.152;2023-02-28T22:38:41;0.00;99.90
27409;DHT22;20413;50.782;7.152;2023-02-28T22:41:07;0.00;99.90
27409;DHT22;20413;50.782;7.152;2023-02-28T22:43:32;0.00;99.90
27409;DHT22;20413;50.782;7.152;2023-02-28T22:46:02;0.00;99.90
27409;DHT22;20413;50.782;7.152;2023-02-28T22:48:29;-0.10;99.90
27409;DHT22;20413;50.782;7.152;2023-02-28T22:51:11;0.10;99.90
27409;DHT22;20413;50.782;7.152;2023-02-28T22:53:39;0.10;99.90
27409;DHT22;20413;50.782;7.152;2023-02-28T22:56:06;0.00;99.90
27409;DHT22;20413;50.782;7.152;2023-02-28T22:58:31;-0.10;99.90
27409;DHT22;20413;50.782;7.152;2023-02-28T23:01:14;-0.10;99.90
27409;DHT22;20413;50.782;7.152;2023-02-28T23:03:41;-0.20;99.90
27409;DHT22;20413;50.782;7.152;2023-02-28T23:06:14;-0.30;99.90
27409;DHT22;20413;50.782;7.152;2023-02-28T23:08:41;-0.30;99.90
27409;DHT22;20413;50.782;7.152;2023-02-28T23:11:07;-0.40;99.90
27409;DHT22;20413;50.782;7.152;2023-02-28T23:13:33;-0.40;99.90
27409;DHT22;20413;50.782;7.152;2023-02-28T23:15:58;-0.50;99.90
27409;DHT22;20413;50.782;7.152;2023-02-28T23:18:24;-0.50;99.90
27409;DHT22;20413;50.782;7.152;2023-02-28T23:20:49;-0.50;99.90
27409;DHT22;20413;50.782;7.152;2023-02-28T23:23:15;-0.50;99.90
27409;DHT22;20413;50.782;7.152;2023-02-28T23:25:41;-0.60;99.90
27409;DHT22;20413;50.782;7.152;2023-02-28T23:28:08;-0.60;99.90
27409;DHT22;20413;50.782;7.152;2023-02-28T23:30:38;-0.60;99.90
27409;DHT22;20413;50.782;7.152;2023-02-28T23:33:05;-0.60;99.90
27409;DHT22;20413;50.782;7.152;2023-02-28T23:35:31;-0.60;99.90
27409;DHT22;20413;50.782;7.152;2023-02-28T23:37:57;-0.60;99.90
27409;DHT22;20413;50.782;7.152;2023-02-28T23:40:23;-0.70;99.90
27409;DHT22;20413;50.782;7.152;2023-02-28T23:42:49;-0.70;99.90
27409;DHT22;20413;50.782;7.152;2023-02-28T23:45:16;-0.60;99.90
27409;DHT22;20413;50.782;7.152;2023-02-28T23:47:41;-0.60;99.90
27409;DHT22;20413;50.782;7.152;2023-02-28T23:50:07;-0.50;99.90
27409;DHT22;20413;50.782;7.152;2023-02-28T23:52:33;-0.50;99.90
27409;DHT22;20413;50.782;7.152;2023-02-28T23:54:59;-0.50;99.90
27409;DHT22;20413;50.782;7.152;2023-02-28T23:57:26;-0.50;99.90
27409;DHT22;20413;50.782;7.152;2023-02-28T23:59:51;-0.50;99.90
